sensor_id;sensor_type;location;lat;lon;timestamp;P1;durP1;ratioP1;P2;durP2;ratioP2
22973;SDS011;11653;50.848;4.584;2023-12-14T00:00:32;67.67;;;29.00;;
22973;SDS011;11653;50.848;4.584;2023-12-14T00:02:58;65.33;;;27.57;;
22973;SDS011;11653;50.848;4.584;2023-12-14T00:05:23;66.63;;;29.03;;
22973;SDS011;11653;50.848;4.584;2023-12-14T00:07:49;71.37;;;28.87;;
22973;SDS011;11653;50.848;4.584;2023-12-14T00:10:15;67.40;;;29.23;;
22973;SDS011;11653;50.848;4.584;2023-12-14T00:12:43;74.67;;;30.10;;
22973;SDS011;11653;50.848;4.584;2023-12-14T00:15:09;72.50;;;29.60;;
22973;SDS011;11653;50.848;4.584;2023-12-14T00:17:35;69.57;;;30.17;;
22973;SDS011;11653;50.848;4.584;2023-12-14T00:20:01;72.63;;;29.10;;
22973;SDS011;11653;50.848;4.584;2023-12-14T00:22:28;73.23;;;27.40;;
22973;SDS011;11653;50.848;4.584;2023-12-14T00:24:53;71.40;;;28.73;;
22973;SDS011;11653;50.848;4.584;2023-12-14T00:27:19;70.53;;;29.67;;
22973;SDS011;11653;50.848;4.584;2023-12-14T00:29:45;77.77;;;31.03;;
22973;SDS011;11653;50.848;4.584;2023-12-14T00:32:11;74.50;;;30.13;;
22973;SDS011;11653;50.848;4.584;2023-12-14T00:34:36;73.20;;;28.67;;
22973;SDS011;11653;50.848;4.584;2023-12-14T00:37:02;74.47;;;29.37;;
22973;SDS011;11653;50.848;4.584;2023-12-14T00:39:28;73.80;;;29.17;;
22973;SDS011;11653;50.848;4.584;2023-12-14T00:41:54;75.80;;;29.43;;
22973;SDS011;11653;50.848;4.584;2023-12-14T00:44:19;73.83;;;29.03;;
22973;SDS011;11653;50.848;4.584;2023-12-14T00:46:45;76.27;;;29.60;;
22973;SDS011;11653;50.848;4.584;2023-12-14T00:49:10;73.83;;;30.03;;
22973;SDS011;11653;50.848;4.584;2023-12-14T00:51:36;78.77;;;29.90;;
22973;SDS011;11653;50.848;4.584;2023-12-14T00:54:03;80.10;;;31.27;;
22973;SDS011;11653;50.848;4.584;2023-12-14T00:56:28;74.93;;;29.17;;
22973;SDS011;11653;50.848;4.584;2023-12-14T00:58:54;80.53;;;31.07;;
22973;SDS011;11653;50.848;4.584;2023-12-14T01:01:20;81.50;;;32.60;;
22973;SDS011;11653;50.848;4.584;2023-12-14T01:03:45;69.80;;;28.73;;
22973;SDS011;11653;50.848;4.584;2023-12-14T01:06:11;76.70;;;29.37;;
22973;SDS011;11653;50.848;4.584;2023-12-14T01:08:37;76.70;;;30.47;;
22973;SDS011;11653;50.848;4.584;2023-12-14T01:11:02;71.30;;;30.33;;
22973;SDS011;11653;50.848;4.584;2023-12-14T01:13:28;74.17;;;28.57;;
22973;SDS011;11653;50.848;4.584;2023-12-14T01:15:54;79.10;;;29.60;;
22973;SDS011;11653;50.848;4.584;2023-12-14T01:18:19;74.73;;;28.50;;
22973;SDS011;11653;50.848;4.584;2023-12-14T01:20:45;74.27;;;28.20;;
22973;SDS011;11653;50.848;4.584;2023-12-14T01:23:12;75.50;;;26.83;;
22973;SDS011;11653;50.848;4.584;2023-12-14T01:25:37;71.13;;;26.63;;
22973;SDS011;11653;50.848;4.584;2023-12-14T01:28:03;80.07;;;28.90;;
22973;SDS011;11653;50.848;4.584;2023-12-14T01:30:29;69.63;;;27.13;;
22973;SDS011;11653;50.848;4.584;2023-12-14T01:32:54;61.93;;;26.77;;
22973;SDS011;11653;50.848;4.584;2023-12-14T01:35:20;69.70;;;29.10;;
22973;SDS011;11653;50.848;4.584;2023-12-14T01:37:45;74.07;;;27.83;;
22973;SDS011;11653;50.848;4.584;2023-12-14T01:40:12;70.17;;;29.27;;
22973;SDS011;11653;50.848;4.584;2023-12-14T01:42:38;67.90;;;26.53;;
22973;SDS011;11653;50.848;4.584;2023-12-14T01:45:04;71.67;;;26.97;;
22973;SDS011;11653;50.848;4.584;2023-12-14T01:47:30;65.50;;;25.37;;
22973;SDS011;11653;50.848;4.584;2023-12-14T01:49:56;68.67;;;27.70;;
22973;SDS011;11653;50.848;4.584;2023-12-14T01:52:21;69.10;;;27.53;;
22973;SDS011;11653;50.848;4.584;2023-12-14T01:54:47;75.47;;;27.77;;
22973;SDS011;11653;50.848;4.584;2023-12-14T01:57:13;68.10;;;27.07;;
22973;SDS011;11653;50.848;4.584;2023-12-14T01:59:38;68.67;;;28.10;;
22973;SDS011;11653;50.848;4.584;2023-12-14T02:02:04;61.50;;;24.83;;
22973;SDS011;11653;50.848;4.584;2023-12-14T02:04:30;62.40;;;25.93;;
22973;SDS011;11653;50.848;4.584;2023-12-14T02:06:56;56.50;;;24.07;;
22973;SDS011;11653;50.848;4.584;2023-12-14T02:09:22;52.63;;;23.57;;
22973;SDS011;11653;50.848;4.584;2023-12-14T02:11:48;56.53;;;23.93;;
22973;SDS011;11653;50.848;4.584;2023-12-14T02:14:13;54.63;;;22.93;;
22973;SDS011;11653;50.848;4.584;2023-12-14T02:16:39;51.73;;;22.83;;
22973;SDS011;11653;50.848;4.584;2023-12-14T02:19:05;54.77;;;22.67;;
22973;SDS011;11653;50.848;4.584;2023-12-14T02:21:30;56.73;;;23.37;;
22973;SDS011;11653;50.848;4.584;2023-12-14T02:23:56;54.50;;;23.30;;
22973;SDS011;11653;50.848;4.584;2023-12-14T02:26:22;57.17;;;22.83;;
22973;SDS011;11653;50.848;4.584;2023-12-14T02:28:48;55.90;;;23.00;;
22973;SDS011;11653;50.848;4.584;2023-12-14T02:31:13;52.90;;;23.10;;
22973;SDS011;11653;50.848;4.584;2023-12-14T02:33:39;57.97;;;23.10;;
22973;SDS011;11653;50.848;4.584;2023-12-14T02:36:05;58.03;;;24.23;;
22973;SDS011;11653;50.848;4.584;2023-12-14T02:38:31;57.43;;;22.90;;
22973;SDS011;11653;50.848;4.584;2023-12-14T02:40:56;50.43;;;21.57;;
22973;SDS011;11653;50.848;4.584;2023-12-14T02:43:22;51.57;;;21.37;;
22973;SDS011;11653;50.848;4.584;2023-12-14T02:45:51;53.40;;;21.83;;
22973;SDS011;11653;50.848;4.584;2023-12-14T02:48:16;48.60;;;21.27;;
22973;SDS011;11653;50.848;4.584;2023-12-14T02:50:42;49.60;;;20.40;;
22973;SDS011;11653;50.848;4.584;2023-12-14T02:53:08;47.97;;;19.80;;
22973;SDS011;11653;50.848;4.584;2023-12-14T02:55:33;42.50;;;19.20;;
22973;SDS011;11653;50.848;4.584;2023-12-14T02:57:59;47.13;;;18.70;;
22973;SDS011;11653;50.848;4.584;2023-12-14T03:00:25;49.30;;;19.87;;
22973;SDS011;11653;50.848;4.584;2023-12-14T03:02:50;44.40;;;18.70;;
22973;SDS011;11653;50.848;4.584;2023-12-14T03:05:16;48.63;;;20.33;;
22973;SDS011;11653;50.848;4.584;2023-12-14T03:07:42;40.53;;;18.47;;
22973;SDS011;11653;50.848;4.584;2023-12-14T03:10:08;46.17;;;20.47;;
22973;SDS011;11653;50.848;4.584;2023-12-14T03:12:34;45.37;;;19.07;;
22973;SDS011;11653;50.848;4.584;2023-12-14T03:14:59;45.17;;;20.00;;
22973;SDS011;11653;50.848;4.584;2023-12-14T03:17:25;49.83;;;19.73;;
22973;SDS011;11653;50.848;4.584;2023-12-14T03:19:51;44.63;;;19.13;;
22973;SDS011;11653;50.848;4.584;2023-12-14T03:22:16;45.40;;;19.43;;
22973;SDS011;11653;50.848;4.584;2023-12-14T03:24:42;45.40;;;20.33;;
22973;SDS011;11653;50.848;4.584;2023-12-14T03:27:08;45.70;;;19.43;;
22973;SDS011;11653;50.848;4.584;2023-12-14T03:29:33;39.23;;;16.43;;
22973;SDS011;11653;50.848;4.584;2023-12-14T03:31:59;42.80;;;17.77;;
22973;SDS011;11653;50.848;4.584;2023-12-14T03:34:26;36.67;;;16.83;;
22973;SDS011;11653;50.848;4.584;2023-12-14T03:36:51;37.70;;;16.87;;
22973;SDS011;11653;50.848;4.584;2023-12-14T03:39:17;39.37;;;16.73;;
22973;SDS011;11653;50.848;4.584;2023-12-14T03:41:43;35.87;;;16.47;;
22973;SDS011;11653;50.848;4.584;2023-12-14T03:44:09;37.03;;;15.20;;
22973;SDS011;11653;50.848;4.584;2023-12-14T03:46:35;34.83;;;15.23;;
22973;SDS011;11653;50.848;4.584;2023-12-14T03:49:01;30.77;;;15.13;;
22973;SDS011;11653;50.848;4.584;2023-12-14T03:51:27;29.77;;;14.10;;
22973;SDS011;11653;50.848;4.584;2023-12-14T03:53:53;27.97;;;12.17;;
22973;SDS011;11653;50.848;4.584;2023-12-14T03:56:19;27.47;;;12.50;;
22973;SDS011;11653;50.848;4.584;2023-12-14T03:58:45;30.00;;;13.17;;
22973;SDS011;11653;50.848;4.584;2023-12-14T04:01:20;29.73;;;13.47;;
22973;SDS011;11653;50.848;4.584;2023-12-14T04:03:46;25.67;;;13.47;;
22973;SDS011;11653;50.848;4.584;2023-12-14T04:06:13;24.43;;;12.30;;
22973;SDS011;11653;50.848;4.584;2023-12-14T04:08:39;27.33;;;13.07;;
22973;SDS011;11653;50.848;4.584;2023-12-14T04:11:06;26.00;;;13.33;;
22973;SDS011;11653;50.848;4.584;2023-12-14T04:13:32;27.03;;;13.43;;
22973;SDS011;11653;50.848;4.584;2023-12-14T04:15:58;27.30;;;13.93;;
22973;SDS011;11653;50.848;4.584;2023-12-14T04:18:24;30.97;;;14.00;;
22973;SDS011;11653;50.848;4.584;2023-12-14T04:20:49;30.37;;;14.90;;
22973;SDS011;11653;50.848;4.584;2023-12-14T04:23:15;31.20;;;14.57;;
22973;SDS011;11653;50.848;4.584;2023-12-14T04:25:41;28.10;;;14.57;;
22973;SDS011;11653;50.848;4.584;2023-12-14T04:28:07;33.63;;;15.57;;
22973;SDS011;11653;50.848;4.584;2023-12-14T04:30:32;31.07;;;15.40;;
22973;SDS011;11653;50.848;4.584;2023-12-14T04:32:58;30.10;;;14.97;;
22973;SDS011;11653;50.848;4.584;2023-12-14T04:35:23;29.80;;;15.43;;
22973;SDS011;11653;50.848;4.584;2023-12-14T04:37:49;27.90;;;14.43;;
22973;SDS011;11653;50.848;4.584;2023-12-14T04:40:15;31.53;;;15.37;;
22973;SDS011;11653;50.848;4.584;2023-12-14T04:42:41;26.47;;;14.73;;
22973;SDS011;11653;50.848;4.584;2023-12-14T04:45:06;32.60;;;15.10;;
22973;SDS011;11653;50.848;4.584;2023-12-14T04:47:34;29.43;;;15.23;;
22973;SDS011;11653;50.848;4.584;2023-12-14T04:50:01;30.10;;;16.13;;
22973;SDS011;11653;50.848;4.584;2023-12-14T04:52:27;29.17;;;15.30;;
22973;SDS011;11653;50.848;4.584;2023-12-14T04:54:52;27.50;;;14.87;;
22973;SDS011;11653;50.848;4.584;2023-12-14T04:57:18;29.57;;;15.30;;
22973;SDS011;11653;50.848;4.584;2023-12-14T04:59:44;30.40;;;15.87;;
22973;SDS011;11653;50.848;4.584;2023-12-14T05:02:09;27.77;;;15.33;;
22973;SDS011;11653;50.848;4.584;2023-12-14T05:04:35;28.83;;;16.07;;
22973;SDS011;11653;50.848;4.584;2023-12-14T05:07:01;27.47;;;15.63;;
22973;SDS011;11653;50.848;4.584;2023-12-14T05:09:27;26.13;;;14.97;;
22973;SDS011;11653;50.848;4.584;2023-12-14T05:11:53;25.23;;;15.13;;
22973;SDS011;11653;50.848;4.584;2023-12-14T05:14:18;25.67;;;15.80;;
22973;SDS011;11653;50.848;4.584;2023-12-14T05:16:44;29.33;;;16.17;;
22973;SDS011;11653;50.848;4.584;2023-12-14T05:19:10;27.50;;;16.37;;
22973;SDS011;11653;50.848;4.584;2023-12-14T05:21:37;27.17;;;15.97;;
22973;SDS011;11653;50.848;4.584;2023-12-14T05:24:03;26.80;;;16.30;;
22973;SDS011;11653;50.848;4.584;2023-12-14T05:26:29;26.10;;;15.33;;
22973;SDS011;11653;50.848;4.584;2023-12-14T05:28:55;22.17;;;14.20;;
22973;SDS011;11653;50.848;4.584;2023-12-14T05:31:20;26.60;;;15.20;;
22973;SDS011;11653;50.848;4.584;2023-12-14T05:33:46;25.77;;;15.10;;
22973;SDS011;11653;50.848;4.584;2023-12-14T05:36:12;27.20;;;15.53;;
22973;SDS011;11653;50.848;4.584;2023-12-14T05:38:38;23.47;;;14.77;;
22973;SDS011;11653;50.848;4.584;2023-12-14T05:41:04;23.80;;;14.63;;
22973;SDS011;11653;50.848;4.584;2023-12-14T05:43:30;23.00;;;14.90;;
22973;SDS011;11653;50.848;4.584;2023-12-14T05:45:56;25.27;;;16.00;;
22973;SDS011;11653;50.848;4.584;2023-12-14T05:48:21;24.03;;;14.43;;
22973;SDS011;11653;50.848;4.584;2023-12-14T05:50:47;28.30;;;14.60;;
22973;SDS011;11653;50.848;4.584;2023-12-14T05:53:13;25.97;;;15.27;;
22973;SDS011;11653;50.848;4.584;2023-12-14T05:55:38;25.70;;;15.47;;
22973;SDS011;11653;50.848;4.584;2023-12-14T05:58:06;26.43;;;15.77;;
22973;SDS011;11653;50.848;4.584;2023-12-14T06:00:32;28.87;;;16.07;;
22973;SDS011;11653;50.848;4.584;2023-12-14T06:03:00;31.87;;;16.17;;
22973;SDS011;11653;50.848;4.584;2023-12-14T06:05:25;28.87;;;17.40;;
22973;SDS011;11653;50.848;4.584;2023-12-14T06:07:51;30.10;;;16.47;;
22973;SDS011;11653;50.848;4.584;2023-12-14T06:10:17;30.63;;;17.30;;
22973;SDS011;11653;50.848;4.584;2023-12-14T06:12:43;32.23;;;17.10;;
22973;SDS011;11653;50.848;4.584;2023-12-14T06:15:08;30.53;;;16.03;;
22973;SDS011;11653;50.848;4.584;2023-12-14T06:17:35;31.27;;;17.87;;
22973;SDS011;11653;50.848;4.584;2023-12-14T06:20:04;32.10;;;17.87;;
22973;SDS011;11653;50.848;4.584;2023-12-14T06:22:30;30.40;;;18.10;;
22973;SDS011;11653;50.848;4.584;2023-12-14T06:24:56;34.50;;;19.50;;
22973;SDS011;11653;50.848;4.584;2023-12-14T06:27:21;33.93;;;18.47;;
22973;SDS011;11653;50.848;4.584;2023-12-14T06:29:51;33.37;;;18.77;;
22973;SDS011;11653;50.848;4.584;2023-12-14T06:32:17;32.23;;;18.13;;
22973;SDS011;11653;50.848;4.584;2023-12-14T06:34:43;30.57;;;18.10;;
22973;SDS011;11653;50.848;4.584;2023-12-14T06:37:08;32.60;;;17.43;;
22973;SDS011;11653;50.848;4.584;2023-12-14T06:39:35;27.80;;;16.57;;
22973;SDS011;11653;50.848;4.584;2023-12-14T06:42:01;30.67;;;17.70;;
22973;SDS011;11653;50.848;4.584;2023-12-14T06:44:26;30.47;;;16.73;;
22973;SDS011;11653;50.848;4.584;2023-12-14T06:46:53;28.90;;;17.93;;
22973;SDS011;11653;50.848;4.584;2023-12-14T06:49:20;30.53;;;17.87;;
22973;SDS011;11653;50.848;4.584;2023-12-14T06:51:46;28.37;;;17.57;;
22973;SDS011;11653;50.848;4.584;2023-12-14T06:54:12;29.83;;;16.73;;
22973;SDS011;11653;50.848;4.584;2023-12-14T06:56:39;29.27;;;16.63;;
22973;SDS011;11653;50.848;4.584;2023-12-14T06:59:05;28.37;;;16.73;;
22973;SDS011;11653;50.848;4.584;2023-12-14T07:01:31;29.87;;;17.23;;
22973;SDS011;11653;50.848;4.584;2023-12-14T07:03:56;30.10;;;17.67;;
22973;SDS011;11653;50.848;4.584;2023-12-14T07:06:22;30.03;;;16.90;;
22973;SDS011;11653;50.848;4.584;2023-12-14T07:08:48;29.50;;;18.10;;
22973;SDS011;11653;50.848;4.584;2023-12-14T07:11:15;29.43;;;16.53;;
22973;SDS011;11653;50.848;4.584;2023-12-14T07:13:41;30.13;;;17.30;;
22973;SDS011;11653;50.848;4.584;2023-12-14T07:16:09;29.43;;;18.23;;
22973;SDS011;11653;50.848;4.584;2023-12-14T07:18:37;28.27;;;16.90;;
22973;SDS011;11653;50.848;4.584;2023-12-14T07:21:05;31.30;;;18.00;;
22973;SDS011;11653;50.848;4.584;2023-12-14T07:23:31;32.80;;;18.37;;
22973;SDS011;11653;50.848;4.584;2023-12-14T07:25:57;34.37;;;18.10;;
22973;SDS011;11653;50.848;4.584;2023-12-14T07:28:23;38.13;;;18.50;;
22973;SDS011;11653;50.848;4.584;2023-12-14T07:30:49;32.33;;;18.63;;
22973;SDS011;11653;50.848;4.584;2023-12-14T07:33:15;33.30;;;17.77;;
22973;SDS011;11653;50.848;4.584;2023-12-14T07:35:41;38.40;;;20.30;;
22973;SDS011;11653;50.848;4.584;2023-12-14T07:38:07;31.53;;;17.70;;
22973;SDS011;11653;50.848;4.584;2023-12-14T07:40:33;32.07;;;16.80;;
22973;SDS011;11653;50.848;4.584;2023-12-14T07:42:59;33.00;;;17.67;;
22973;SDS011;11653;50.848;4.584;2023-12-14T07:45:25;30.53;;;17.70;;
22973;SDS011;11653;50.848;4.584;2023-12-14T07:47:52;29.60;;;17.30;;
22973;SDS011;11653;50.848;4.584;2023-12-14T07:50:17;28.03;;;16.80;;
22973;SDS011;11653;50.848;4.584;2023-12-14T07:52:44;28.47;;;16.07;;
22973;SDS011;11653;50.848;4.584;2023-12-14T07:55:09;28.50;;;16.30;;
22973;SDS011;11653;50.848;4.584;2023-12-14T07:57:35;22.73;;;14.20;;
22973;SDS011;11653;50.848;4.584;2023-12-14T08:00:01;28.20;;;14.97;;
22973;SDS011;11653;50.848;4.584;2023-12-14T08:02:29;23.87;;;14.20;;
22973;SDS011;11653;50.848;4.584;2023-12-14T08:04:54;26.47;;;14.97;;
22973;SDS011;11653;50.848;4.584;2023-12-14T08:07:20;28.80;;;16.60;;
22973;SDS011;11653;50.848;4.584;2023-12-14T08:09:46;33.50;;;17.00;;
22973;SDS011;11653;50.848;4.584;2023-12-14T08:12:11;28.60;;;16.63;;
22973;SDS011;11653;50.848;4.584;2023-12-14T08:14:37;30.23;;;17.20;;
22973;SDS011;11653;50.848;4.584;2023-12-14T08:17:06;32.20;;;16.97;;
22973;SDS011;11653;50.848;4.584;2023-12-14T08:19:31;32.70;;;17.23;;
22973;SDS011;11653;50.848;4.584;2023-12-14T08:21:57;33.53;;;17.63;;
22973;SDS011;11653;50.848;4.584;2023-12-14T08:24:23;35.63;;;18.13;;
22973;SDS011;11653;50.848;4.584;2023-12-14T08:26:48;34.07;;;18.67;;
22973;SDS011;11653;50.848;4.584;2023-12-14T08:29:14;33.73;;;18.00;;
22973;SDS011;11653;50.848;4.584;2023-12-14T08:31:40;32.17;;;17.50;;
22973;SDS011;11653;50.848;4.584;2023-12-14T08:34:05;34.27;;;17.90;;
22973;SDS011;11653;50.848;4.584;2023-12-14T08:36:31;29.00;;;16.17;;
22973;SDS011;11653;50.848;4.584;2023-12-14T08:38:57;29.97;;;16.90;;
22973;SDS011;11653;50.848;4.584;2023-12-14T08:41:23;31.00;;;16.63;;
22973;SDS011;11653;50.848;4.584;2023-12-14T08:43:49;30.50;;;15.53;;
22973;SDS011;11653;50.848;4.584;2023-12-14T08:46:14;27.97;;;16.27;;
22973;SDS011;11653;50.848;4.584;2023-12-14T08:48:40;29.93;;;14.37;;
22973;SDS011;11653;50.848;4.584;2023-12-14T08:51:06;27.63;;;15.10;;
22973;SDS011;11653;50.848;4.584;2023-12-14T08:53:32;26.03;;;14.87;;
22973;SDS011;11653;50.848;4.584;2023-12-14T08:55:58;29.20;;;15.60;;
22973;SDS011;11653;50.848;4.584;2023-12-14T08:58:23;31.50;;;17.10;;
22973;SDS011;11653;50.848;4.584;2023-12-14T09:00:49;31.77;;;17.43;;
22973;SDS011;11653;50.848;4.584;2023-12-14T09:03:20;31.07;;;16.70;;
22973;SDS011;11653;50.848;4.584;2023-12-14T09:05:46;32.83;;;18.40;;
22973;SDS011;11653;50.848;4.584;2023-12-14T09:08:12;39.80;;;20.00;;
22973;SDS011;11653;50.848;4.584;2023-12-14T09:10:38;36.00;;;19.33;;
22973;SDS011;11653;50.848;4.584;2023-12-14T09:13:04;37.37;;;18.37;;
22973;SDS011;11653;50.848;4.584;2023-12-14T09:15:33;30.53;;;17.73;;
22973;SDS011;11653;50.848;4.584;2023-12-14T09:17:59;30.57;;;18.50;;
22973;SDS011;11653;50.848;4.584;2023-12-14T09:20:25;30.20;;;17.67;;
22973;SDS011;11653;50.848;4.584;2023-12-14T09:22:51;29.83;;;17.60;;
22973;SDS011;11653;50.848;4.584;2023-12-14T09:25:17;30.80;;;16.57;;
22973;SDS011;11653;50.848;4.584;2023-12-14T09:27:43;29.57;;;15.63;;
22973;SDS011;11653;50.848;4.584;2023-12-14T09:30:09;25.40;;;15.23;;
22973;SDS011;11653;50.848;4.584;2023-12-14T09:32:35;24.57;;;13.80;;
22973;SDS011;11653;50.848;4.584;2023-12-14T09:35:01;26.43;;;14.47;;
22973;SDS011;11653;50.848;4.584;2023-12-14T09:37:27;16.83;;;11.63;;
22973;SDS011;11653;50.848;4.584;2023-12-14T09:39:53;23.37;;;11.20;;
22973;SDS011;11653;50.848;4.584;2023-12-14T09:42:19;15.80;;;10.20;;
22973;SDS011;11653;50.848;4.584;2023-12-14T09:44:49;18.53;;;10.07;;
22973;SDS011;11653;50.848;4.584;2023-12-14T09:47:17;16.50;;;10.20;;
22973;SDS011;11653;50.848;4.584;2023-12-14T09:49:43;16.63;;;10.47;;
22973;SDS011;11653;50.848;4.584;2023-12-14T09:52:10;14.27;;;9.40;;
22973;SDS011;11653;50.848;4.584;2023-12-14T09:54:36;16.07;;;8.57;;
22973;SDS011;11653;50.848;4.584;2023-12-14T09:57:02;13.50;;;8.07;;
22973;SDS011;11653;50.848;4.584;2023-12-14T09:59:28;9.27;;;6.77;;
22973;SDS011;11653;50.848;4.584;2023-12-14T10:02:06;10.23;;;6.80;;
22973;SDS011;11653;50.848;4.584;2023-12-14T10:04:35;10.40;;;7.50;;
22973;SDS011;11653;50.848;4.584;2023-12-14T10:07:01;17.70;;;7.27;;
22973;SDS011;11653;50.848;4.584;2023-12-14T10:09:32;12.67;;;7.03;;
22973;SDS011;11653;50.848;4.584;2023-12-14T10:12:05;11.53;;;7.43;;
22973;SDS011;11653;50.848;4.584;2023-12-14T10:14:34;12.57;;;8.13;;
22973;SDS011;11653;50.848;4.584;2023-12-14T10:17:19;17.97;;;9.20;;
22973;SDS011;11653;50.848;4.584;2023-12-14T10:19:46;18.33;;;9.93;;
22973;SDS011;11653;50.848;4.584;2023-12-14T10:22:13;18.67;;;10.77;;
22973;SDS011;11653;50.848;4.584;2023-12-14T10:24:44;14.17;;;8.90;;
22973;SDS011;11653;50.848;4.584;2023-12-14T10:27:11;16.33;;;9.53;;
22973;SDS011;11653;50.848;4.584;2023-12-14T10:29:38;14.67;;;9.93;;
22973;SDS011;11653;50.848;4.584;2023-12-14T10:32:04;15.47;;;9.90;;
22973;SDS011;11653;50.848;4.584;2023-12-14T10:34:35;19.03;;;10.03;;
22973;SDS011;11653;50.848;4.584;2023-12-14T10:37:01;15.93;;;9.93;;
22973;SDS011;11653;50.848;4.584;2023-12-14T10:39:29;18.23;;;9.93;;
22973;SDS011;11653;50.848;4.584;2023-12-14T10:41:55;15.90;;;9.23;;
22973;SDS011;11653;50.848;4.584;2023-12-14T10:44:23;15.40;;;9.37;;
22973;SDS011;11653;50.848;4.584;2023-12-14T10:46:53;18.53;;;9.40;;
22973;SDS011;11653;50.848;4.584;2023-12-14T10:49:22;20.33;;;9.50;;
22973;SDS011;11653;50.848;4.584;2023-12-14T10:51:54;14.93;;;9.30;;
22973;SDS011;11653;50.848;4.584;2023-12-14T10:54:25;15.83;;;9.17;;
22973;SDS011;11653;50.848;4.584;2023-12-14T10:56:55;17.07;;;9.03;;
22973;SDS011;11653;50.848;4.584;2023-12-14T10:59:21;14.00;;;8.57;;
22973;SDS011;11653;50.848;4.584;2023-12-14T11:01:52;13.17;;;7.70;;
22973;SDS011;11653;50.848;4.584;2023-12-14T11:04:20;14.80;;;7.00;;
22973;SDS011;11653;50.848;4.584;2023-12-14T11:06:47;12.67;;;6.70;;
22973;SDS011;11653;50.848;4.584;2023-12-14T11:09:13;14.50;;;7.37;;
22973;SDS011;11653;50.848;4.584;2023-12-14T11:14:18;12.37;;;5.90;;
22973;SDS011;11653;50.848;4.584;2023-12-14T11:16:45;13.70;;;6.20;;
22973;SDS011;11653;50.848;4.584;2023-12-14T11:21:48;10.50;;;5.57;;
22973;SDS011;11653;50.848;4.584;2023-12-14T11:24:36;9.47;;;5.60;;
22973;SDS011;11653;50.848;4.584;2023-12-14T11:27:08;10.73;;;6.43;;
22973;SDS011;11653;50.848;4.584;2023-12-14T11:29:37;10.80;;;6.27;;
22973;SDS011;11653;50.848;4.584;2023-12-14T11:32:08;11.03;;;5.37;;
22973;SDS011;11653;50.848;4.584;2023-12-14T11:34:34;12.47;;;5.23;;
22973;SDS011;11653;50.848;4.584;2023-12-14T11:37:00;12.63;;;5.77;;
22973;SDS011;11653;50.848;4.584;2023-12-14T11:39:29;8.13;;;5.50;;
22973;SDS011;11653;50.848;4.584;2023-12-14T11:42:05;12.10;;;5.77;;
22973;SDS011;11653;50.848;4.584;2023-12-14T11:44:35;12.33;;;6.03;;
22973;SDS011;11653;50.848;4.584;2023-12-14T11:47:05;17.40;;;6.07;;
22973;SDS011;11653;50.848;4.584;2023-12-14T11:49:31;13.77;;;6.00;;
22973;SDS011;11653;50.848;4.584;2023-12-14T11:51:57;14.63;;;5.93;;
22973;SDS011;11653;50.848;4.584;2023-12-14T11:54:27;7.17;;;4.93;;
22973;SDS011;11653;50.848;4.584;2023-12-14T11:56:52;16.90;;;5.83;;
22973;SDS011;11653;50.848;4.584;2023-12-14T11:59:18;9.03;;;5.73;;
22973;SDS011;11653;50.848;4.584;2023-12-14T12:02:00;9.37;;;5.33;;
22973;SDS011;11653;50.848;4.584;2023-12-14T12:04:27;12.80;;;6.20;;
22973;SDS011;11653;50.848;4.584;2023-12-14T12:06:59;10.77;;;4.70;;
22973;SDS011;11653;50.848;4.584;2023-12-14T12:09:33;9.83;;;4.93;;
22973;SDS011;11653;50.848;4.584;2023-12-14T12:12:06;12.03;;;5.43;;
22973;SDS011;11653;50.848;4.584;2023-12-14T12:14:37;10.97;;;5.83;;
22973;SDS011;11653;50.848;4.584;2023-12-14T12:17:04;13.67;;;6.07;;
22973;SDS011;11653;50.848;4.584;2023-12-14T12:19:34;11.17;;;5.80;;
22973;SDS011;11653;50.848;4.584;2023-12-14T12:22:01;10.90;;;5.13;;
22973;SDS011;11653;50.848;4.584;2023-12-14T12:24:27;10.70;;;4.73;;
22973;SDS011;11653;50.848;4.584;2023-12-14T12:26:53;7.43;;;4.73;;
22973;SDS011;11653;50.848;4.584;2023-12-14T12:29:20;8.37;;;4.90;;
22973;SDS011;11653;50.848;4.584;2023-12-14T12:31:46;10.07;;;4.97;;
22973;SDS011;11653;50.848;4.584;2023-12-14T12:34:11;9.93;;;4.90;;
22973;SDS011;11653;50.848;4.584;2023-12-14T12:36:37;15.20;;;6.27;;
22973;SDS011;11653;50.848;4.584;2023-12-14T12:39:03;11.67;;;5.40;;
22973;SDS011;11653;50.848;4.584;2023-12-14T12:41:31;12.00;;;5.07;;
22973;SDS011;11653;50.848;4.584;2023-12-14T12:43:57;14.27;;;5.60;;
22973;SDS011;11653;50.848;4.584;2023-12-14T12:46:24;14.03;;;5.77;;
22973;SDS011;11653;50.848;4.584;2023-12-14T12:48:50;12.40;;;5.67;;
22973;SDS011;11653;50.848;4.584;2023-12-14T12:51:16;11.00;;;5.43;;
22973;SDS011;11653;50.848;4.584;2023-12-14T12:53:42;12.00;;;6.03;;
22973;SDS011;11653;50.848;4.584;2023-12-14T12:56:07;17.83;;;7.00;;
22973;SDS011;11653;50.848;4.584;2023-12-14T12:58:33;14.70;;;5.90;;
22973;SDS011;11653;50.848;4.584;2023-12-14T13:00:59;13.63;;;6.47;;
22973;SDS011;11653;50.848;4.584;2023-12-14T13:03:25;14.93;;;6.70;;
22973;SDS011;11653;50.848;4.584;2023-12-14T13:05:50;16.17;;;7.50;;
22973;SDS011;11653;50.848;4.584;2023-12-14T13:08:16;14.83;;;7.20;;
22973;SDS011;11653;50.848;4.584;2023-12-14T13:10:42;13.03;;;6.90;;
22973;SDS011;11653;50.848;4.584;2023-12-14T13:13:08;16.40;;;7.03;;
22973;SDS011;11653;50.848;4.584;2023-12-14T13:15:37;12.23;;;6.97;;
22973;SDS011;11653;50.848;4.584;2023-12-14T13:18:04;20.00;;;7.83;;
22973;SDS011;11653;50.848;4.584;2023-12-14T13:20:29;14.03;;;7.00;;
22973;SDS011;11653;50.848;4.584;2023-12-14T13:22:55;15.67;;;7.70;;
22973;SDS011;11653;50.848;4.584;2023-12-14T13:25:20;18.30;;;7.83;;
22973;SDS011;11653;50.848;4.584;2023-12-14T13:27:51;16.20;;;7.67;;
22973;SDS011;11653;50.848;4.584;2023-12-14T13:30:16;14.90;;;7.63;;
22973;SDS011;11653;50.848;4.584;2023-12-14T13:32:42;14.47;;;8.53;;
22973;SDS011;11653;50.848;4.584;2023-12-14T13:35:08;19.43;;;9.23;;
22973;SDS011;11653;50.848;4.584;2023-12-14T13:37:34;18.37;;;10.30;;
22973;SDS011;11653;50.848;4.584;2023-12-14T13:40:00;20.07;;;10.87;;
22973;SDS011;11653;50.848;4.584;2023-12-14T13:42:25;21.93;;;12.33;;
22973;SDS011;11653;50.848;4.584;2023-12-14T13:44:51;22.70;;;12.47;;
22973;SDS011;11653;50.848;4.584;2023-12-14T13:47:17;20.73;;;11.50;;
22973;SDS011;11653;50.848;4.584;2023-12-14T13:49:42;20.37;;;11.33;;
22973;SDS011;11653;50.848;4.584;2023-12-14T13:52:08;21.20;;;12.03;;
22973;SDS011;11653;50.848;4.584;2023-12-14T13:54:34;19.83;;;11.43;;
22973;SDS011;11653;50.848;4.584;2023-12-14T13:57:01;22.13;;;11.87;;
22973;SDS011;11653;50.848;4.584;2023-12-14T13:59:27;19.03;;;12.60;;
22973;SDS011;11653;50.848;4.584;2023-12-14T14:01:53;22.40;;;11.40;;
22973;SDS011;11653;50.848;4.584;2023-12-14T14:04:19;23.33;;;12.23;;
22973;SDS011;11653;50.848;4.584;2023-12-14T14:06:44;23.07;;;13.03;;
22973;SDS011;11653;50.848;4.584;2023-12-14T14:09:11;21.90;;;12.37;;
22973;SDS011;11653;50.848;4.584;2023-12-14T14:11:37;23.03;;;12.37;;
22973;SDS011;11653;50.848;4.584;2023-12-14T14:14:03;28.77;;;14.23;;
22973;SDS011;11653;50.848;4.584;2023-12-14T14:16:29;22.67;;;11.73;;
22973;SDS011;11653;50.848;4.584;2023-12-14T14:18:56;19.30;;;11.33;;
22973;SDS011;11653;50.848;4.584;2023-12-14T14:21:21;22.47;;;10.73;;
22973;SDS011;11653;50.848;4.584;2023-12-14T14:23:47;20.70;;;10.97;;
22973;SDS011;11653;50.848;4.584;2023-12-14T14:26:13;18.77;;;11.87;;